Time;durP1;ratioP1;P1;durP2;ratioP2;P2;SDS_P1;SDS_P2;PMS_P1;PMS_P2;Temp;Humidity;BMP_temperature;BMP_pressure;BME280_temperature;BME280_humidity;BME280_pressure;Samples;Min_cycle;Max_cycle;Signal;HPM_P1;HPM_P2
2024/01/20 00:00:12;;;;;;;11.00;5.90;;;-1.20;99.90;;;;;;4192496;28;20316;-60
2024/01/20 00:02:14;;;;;;;13.17;6.57;;;-1.20;99.90;;;;;;4211449;28;20889;-61
2024/01/20 00:04:15;;;;;;;12.90;6.40;;;-1.20;99.90;;;;;;4210953;28;20342;-59
2024/01/20 00:06:16;;;;;;;15.83;6.40;;;-1.20;99.90;;;;;;4211182;28;20806;-62
2024/01/20 00:08:17;;;;;;;13.03;6.47;;;-1.20;99.90;;;;;;4211557;28;20520;-61
2024/01/20 00:10:19;;;;;;;13.57;5.43;;;-1.20;99.90;;;;;;4209486;28;20304;-61
2024/01/20 00:12:20;;;;;;;11.07;5.37;;;-1.30;99.90;;;;;;4211453;28;20342;-63
2024/01/20 00:14:21;;;;;;;19.07;7.13;;;-1.30;99.90;;;;;;4210045;28;20294;-62
2024/01/20 00:16:22;;;;;;;13.43;6.77;;;-1.30;99.90;;;;;;4212170;28;20293;-62
2024/01/20 00:18:23;;;;;;;11.83;6.37;;;-1.30;99.90;;;;;;4210509;28;20295;-62
2024/01/20 00:20:24;;;;;;;13.63;5.87;;;-1.20;99.90;;;;;;4211706;28;20668;-62
2024/01/20 00:22:26;;;;;;;11.93;5.83;;;-1.20;99.90;;;;;;4210595;28;20276;-61
2024/01/20 00:24:27;;;;;;;10.77;5.27;;;-1.20;99.90;;;;;;4211742;28;20269;-62
2024/01/20 00:26:28;;;;;;;12.27;6.10;;;-1.20;99.90;;;;;;4210073;28;20687;-61
2024/01/20 00:28:29;;;;;;;9.30;5.30;;;-1.20;99.90;;;;;;4211249;28;20675;-60
2024/01/20 00:30:30;;;;;;;12.93;5.90;;;-1.20;99.90;;;;;;4210218;28;20617;-62
2024/01/20 00:32:32;;;;;;;10.03;5.67;;;-1.20;99.90;;;;;;4211135;28;20265;-61
2024/01/20 00:34:33;;;;;;;12.10;5.40;;;-1.20;99.90;;;;;;4210859;28;20760;-62
2024/01/20 00:36:34;;;;;;;10.53;5.50;;;-1.20;99.90;;;;;;4210805;28;20357;-63
2024/01/20 00:38:38;;;;;;;11.07;4.80;;;-1.30;99.90;;;;;;4209446;28;20672;-62
2024/01/20 00:40:40;;;;;;;11.17;5.33;;;-1.30;99.90;;;;;;4210683;28;20253;-63
2024/01/20 00:42:41;;;;;;;9.73;4.70;;;-1.20;99.90;;;;;;4211047;28;20342;-63
2024/01/20 00:44:42;;;;;;;11.47;5.17;;;-1.20;99.90;;;;;;4209749;28;20265;-61
2024/01/20 00:46:43;;;;;;;11.57;4.90;;;-1.20;99.90;;;;;;4211579;28;20322;-62
2024/01/20 00:48:45;;;;;;;11.13;4.47;;;-1.20;99.90;;;;;;4210450;28;20264;-62
2024/01/20 00:50:46;;;;;;;10.00;4.30;;;-1.20;99.90;;;;;;4211441;28;21200;-61
2024/01/20 00:52:47;;;;;;;11.07;4.73;;;-1.20;99.90;;;;;;4210205;28;20260;-62
2024/01/20 00:54:50;;;;;;;9.23;4.63;;;-1.20;99.90;;;;;;4211464;28;20326;-62
2024/01/20 00:56:52;;;;;;;10.53;4.50;;;-1.20;99.90;;;;;;4209751;28;20334;-62
2024/01/20 00:58:53;;;;;;;9.60;4.53;;;-1.30;99.90;;;;;;4211490;28;20272;-63
2024/01/20 01:00:54;;;;;;;9.07;4.27;;;-1.20;99.90;;;;;;4210279;28;20751;-63
2024/01/20 01:02:55;;;;;;;8.07;3.90;;;-1.20;99.90;;;;;;4210887;28;20667;-64
2024/01/20 01:04:56;;;;;;;8.13;4.90;;;-1.20;99.90;;;;;;4210444;28;20721;-62
2024/01/20 01:06:57;;;;;;;9.23;4.20;;;-1.20;99.90;;;;;;4210643;28;20748;-63
2024/01/20 01:08:59;;;;;;;9.10;4.30;;;-1.30;99.90;;;;;;4210736;28;20294;-62
2024/01/20 01:11:00;;;;;;;10.00;3.67;;;-1.30;99.90;;;;;;4209757;28;20276;-62
2024/01/20 01:13:01;;;;;;;12.93;4.73;;;-1.20;99.90;;;;;;4210990;28;20337;-62
2024/01/20 01:15:03;;;;;;;11.63;4.93;;;-1.20;99.90;;;;;;4210112;28;20666;-62
2024/01/20 01:17:04;;;;;;;7.33;3.80;;;-1.20;99.90;;;;;;4211246;28;20318;-62
2024/01/20 01:19:06;;;;;;;11.63;5.30;;;-1.30;99.90;;;;;;4210154;28;20272;-62
2024/01/20 01:21:07;;;;;;;10.33;4.97;;;-1.20;99.90;;;;;;4211153;28;20315;-61
2024/01/20 01:23:08;;;;;;;11.67;4.87;;;-1.30;99.90;;;;;;4209845;28;20273;-62
2024/01/20 01:25:09;;;;;;;8.73;3.87;;;-1.30;99.90;;;;;;4211249;28;21307;-63
2024/01/20 01:27:10;;;;;;;9.43;4.27;;;-1.20;99.90;;;;;;4209606;28;20265;-63
2024/01/20 01:29:11;;;;;;;9.20;4.10;;;-1.30;99.90;;;;;;4211216;28;20322;-62
2024/01/20 01:31:12;;;;;;;8.30;3.90;;;-1.30;99.90;;;;;;4210095;28;20691;-62
2024/01/20 01:33:14;;;;;;;7.83;4.20;;;-1.30;99.90;;;;;;4210831;28;20269;-63
2024/01/20 01:35:15;;;;;;;8.90;3.80;;;-1.30;99.90;;;;;;4210194;28;20306;-62
2024/01/20 01:37:16;;;;;;;8.73;3.97;;;-1.30;99.90;;;;;;4209951;28;20285;-61
2024/01/20 01:39:17;;;;;;;7.83;3.90;;;-1.30;99.90;;;;;;4211034;28;20656;-62
2024/01/20 01:41:19;;;;;;;6.50;3.60;;;-1.30;99.90;;;;;;4212024;28;20253;-61
2024/01/20 01:43:20;;;;;;;7.63;3.53;;;-1.30;99.90;;;;;;4213334;28;20364;-62
2024/01/20 01:45:21;;;;;;;9.93;4.53;;;-1.30;99.90;;;;;;4212731;28;20760;-62
2024/01/20 01:47:23;;;;;;;7.77;3.20;;;-1.30;99.90;;;;;;4214093;28;20265;-62
2024/01/20 01:49:24;;;;;;;9.37;3.90;;;-1.30;99.90;;;;;;4212724;28;20265;-62
2024/01/20 01:51:25;;;;;;;7.67;3.30;;;-1.30;99.90;;;;;;4214021;28;20257;-62
2024/01/20 01:53:27;;;;;;;5.77;2.70;;;-1.30;99.90;;;;;;4212541;28;20333;-58
2024/01/20 01:55:28;;;;;;;8.20;3.40;;;-1.30;99.90;;;;;;4213823;28;20706;-59
2024/01/20 01:57:30;;;;;;;8.57;3.80;;;-1.30;99.90;;;;;;4212533;28;20318;-62
2024/01/20 01:59:33;;;;;;;13.27;3.17;;;-1.30;99.90;;;;;;4213957;28;20272;-62
2024/01/20 02:01:34;;;;;;;7.23;3.30;;;-1.30;99.90;;;;;;4212278;28;20354;-62
2024/01/20 02:03:35;;;;;;;7.67;3.10;;;-1.40;99.90;;;;;;4213755;28;20265;-62
2024/01/20 02:05:36;;;;;;;7.77;3.10;;;-1.30;99.90;;;;;;4212267;28;20798;-63
2024/01/20 02:07:39;;;;;;;6.77;3.43;;;-1.30;99.90;;;;;;4213265;28;20253;-64
2024/01/20 02:09:44;;;;;;;7.90;3.07;;;-1.40;99.90;;;;;;4213482;28;20275;-62
2024/01/20 02:11:46;;;;;;;10.10;3.53;;;-1.40;99.90;;;;;;4212475;28;20691;-62
2024/01/20 02:13:47;;;;;;;9.43;3.20;;;-1.40;99.90;;;;;;4212741;28;20294;-61
2024/01/20 02:15:48;;;;;;;10.43;3.37;;;-1.40;99.90;;;;;;4212454;28;20772;-61
2024/01/20 02:17:55;;;;;;;7.60;3.93;;;-1.40;99.90;;;;;;4213004;28;20265;-61
2024/01/20 02:19:56;;;;;;;7.70;3.33;;;-1.40;99.90;;;;;;4211901;28;20385;-61
2024/01/20 02:21:58;;;;;;;4.93;2.67;;;-1.40;99.90;;;;;;4212129;28;20264;-61
2024/01/20 02:24:00;;;;;;;8.97;4.07;;;-1.50;99.90;;;;;;4211826;28;20256;-61
2024/01/20 02:26:01;;;;;;;6.57;3.30;;;-1.50;99.90;;;;;;4213031;28;20325;-60
2024/01/20 02:28:03;;;;;;;10.10;3.73;;;-1.50;99.90;;;;;;4211781;28;20280;-61
2024/01/20 02:30:05;;;;;;;9.33;3.53;;;-1.50;99.90;;;;;;4212641;28;20260;-62
2024/01/20 02:32:06;;;;;;;7.23;3.93;;;-1.40;99.90;;;;;;4211349;28;20638;-60
2024/01/20 02:34:07;;;;;;;6.77;3.47;;;-1.50;99.90;;;;;;4213343;28;21004;-62
2024/01/20 02:36:09;;;;;;;8.63;3.60;;;-1.50;99.90;;;;;;4211575;28;20293;-62
2024/01/20 02:38:10;;;;;;;8.50;3.77;;;-1.50;99.90;;;;;;4212594;28;20272;-60
2024/01/20 02:40:11;;;;;;;7.07;3.40;;;-1.50;99.90;;;;;;4212328;28;20264;-61
2024/01/20 02:42:12;;;;;;;12.77;3.40;;;-1.50;99.90;;;;;;4212020;28;20658;-60
2024/01/20 02:44:15;;;;;;;8.40;4.00;;;-1.50;99.90;;;;;;4212426;28;20276;-61
2024/01/20 02:46:16;;;;;;;7.60;3.20;;;-1.50;99.90;;;;;;4212329;28;20265;-60
2024/01/20 02:48:18;;;;;;;5.90;3.03;;;-1.60;99.90;;;;;;4212708;28;20314;-60
2024/01/20 02:50:19;;;;;;;12.47;3.73;;;-1.60;99.90;;;;;;4211632;28;20390;-62
2024/01/20 02:52:20;;;;;;;10.40;3.80;;;-1.60;99.90;;;;;;4213052;28;20261;-61
2024/01/20 02:54:21;;;;;;;5.70;3.03;;;-1.70;99.90;;;;;;4211646;28;20252;-61
2024/01/20 02:56:22;;;;;;;10.10;3.20;;;-1.70;99.90;;;;;;4212390;28;20346;-62
2024/01/20 02:58:23;;;;;;;8.70;2.90;;;-1.80;99.90;;;;;;4211722;28;20260;-61
2024/01/20 03:00:25;;;;;;;9.07;3.00;;;-1.80;99.90;;;;;;4211478;28;20269;-61
2024/01/20 03:02:26;;;;;;;9.50;4.57;;;-1.80;99.90;;;;;;4211271;28;20265;-63
2024/01/20 03:04:28;;;;;;;7.17;3.57;;;-1.80;99.90;;;;;;4212398;28;20345;-61
2024/01/20 03:06:29;;;;;;;7.03;3.50;;;-1.80;99.90;;;;;;4210976;28;20298;-62
2024/01/20 03:08:30;;;;;;;8.47;3.33;;;-1.90;99.90;;;;;;4210830;28;20280;-61
2024/01/20 03:10:31;;;;;;;7.90;3.20;;;-1.90;99.90;;;;;;4210526;28;20307;-61
2024/01/20 03:12:32;;;;;;;5.93;3.43;;;-2.00;99.90;;;;;;4211643;28;20341;-62
2024/01/20 03:14:34;;;;;;;8.67;3.60;;;-2.00;99.90;;;;;;4211496;28;20346;-63
2024/01/20 03:16:36;;;;;;;8.10;3.70;;;-2.00;99.90;;;;;;4211895;28;20648;-62
2024/01/20 03:18:37;;;;;;;8.30;3.50;;;-2.00;99.90;;;;;;4211724;28;20261;-60
2024/01/20 03:20:38;;;;;;;6.90;3.20;;;-2.10;99.90;;;;;;4211372;28;20326;-62
2024/01/20 03:22:39;;;;;;;7.90;3.63;;;-2.10;99.90;;;;;;4212335;28;20671;-60
2024/01/20 03:24:40;;;;;;;9.37;4.13;;;-2.20;99.90;;;;;;4211159;28;20825;-61
2024/01/20 03:26:45;;;;;;;9.37;3.70;;;-2.20;99.90;;;;;;4211965;28;20825;-61
2024/01/20 03:28:46;;;;;;;10.50;3.70;;;-2.20;99.90;;;;;;4211074;28;20292;-61
2024/01/20 03:30:48;;;;;;;8.37;3.53;;;-2.20;99.90;;;;;;4212139;28;20269;-60
2024/01/20 03:32:51;;;;;;;8.47;3.80;;;-2.30;99.90;;;;;;4211174;28;20330;-60
2024/01/20 03:34:52;;;;;;;8.90;3.50;;;-2.30;99.90;;;;;;4212237;28;20322;-61
2024/01/20 03:36:53;;;;;;;7.57;3.27;;;-2.30;99.90;;;;;;4210581;28;20301;-60
2024/01/20 03:38:55;;;;;;;6.47;3.30;;;-2.30;99.90;;;;;;4211101;28;20253;-61
2024/01/20 03:40:56;;;;;;;8.57;4.67;;;-2.40;99.90;;;;;;4210971;28;20753;-61
2024/01/20 03:42:57;;;;;;;8.77;3.67;;;-2.40;99.90;;;;;;4209646;28;20280;-62
2024/01/20 03:44:58;;;;;;;8.30;3.97;;;-2.40;99.90;;;;;;4210671;28;20385;-61
2024/01/20 03:46:59;;;;;;;12.27;3.73;;;-2.50;99.90;;;;;;4211036;28;20768;-62
2024/01/20 03:49:00;;;;;;;8.73;3.30;;;-2.50;99.90;;;;;;4211517;28;20623;-61
2024/01/20 03:51:03;;;;;;;11.17;4.10;;;-2.50;99.90;;;;;;4211060;28;20571;-61
2024/01/20 03:53:05;;;;;;;16.50;6.50;;;-2.50;99.90;;;;;;4211686;28;20318;-63
2024/01/20 03:55:07;;;;;;;9.13;4.97;;;-2.50;99.90;;;;;;4210665;28;20277;-62
2024/01/20 03:57:08;;;;;;;9.80;5.10;;;-2.60;99.90;;;;;;4211742;28;20289;-61
2024/01/20 03:59:09;;;;;;;7.20;3.97;;;-2.50;99.90;;;;;;4210688;28;20294;-62
2024/01/20 04:01:10;;;;;;;16.07;5.57;;;-2.60;99.90;;;;;;4211865;28;21327;-61
2024/01/20 04:03:12;;;;;;;14.03;6.27;;;-2.60;99.90;;;;;;4209841;28;21239;-61
2024/01/20 04:05:13;;;;;;;20.87;10.03;;;-2.60;99.90;;;;;;4211836;28;20671;-61
2024/01/20 04:07:14;;;;;;;16.67;7.27;;;-2.70;99.90;;;;;;4210669;28;20313;-62
2024/01/20 04:09:16;;;;;;;20.07;9.60;;;-2.70;99.90;;;;;;4212042;28;20322;-62
2024/01/20 04:11:17;;;;;;;11.93;6.33;;;-2.70;99.90;;;;;;4210644;28;20591;-62
2024/01/20 04:13:18;;;;;;;11.97;5.30;;;-2.70;99.90;;;;;;4211609;28;20647;-62
2024/01/20 04:15:19;;;;;;;9.33;4.63;;;-2.80;99.90;;;;;;4210568;28;20729;-61
2024/01/20 04:17:20;;;;;;;10.53;5.03;;;-2.90;99.90;;;;;;4210941;28;20369;-62
2024/01/20 04:19:21;;;;;;;12.20;5.03;;;-2.90;99.90;;;;;;4210758;28;20326;-62
2024/01/20 04:21:23;;;;;;;8.83;4.93;;;-2.90;99.90;;;;;;4210843;28;20814;-61
2024/01/20 04:23:24;;;;;;;12.87;5.67;;;-2.90;99.90;;;;;;4211229;28;20833;-61
2024/01/20 04:25:25;;;;;;;12.37;4.57;;;-2.90;99.90;;;;;;4210522;28;20314;-62
2024/01/20 04:27:26;;;;;;;12.30;4.70;;;-3.00;99.90;;;;;;4209738;28;20272;-61
2024/01/20 04:29:27;;;;;;;13.23;5.33;;;-3.00;99.90;;;;;;4210339;28;20277;-62
2024/01/20 04:31:29;;;;;;;11.50;4.73;;;-3.00;99.90;;;;;;4211443;28;20323;-62
2024/01/20 04:33:30;;;;;;;14.57;5.77;;;-3.00;99.90;;;;;;4209818;28;20752;-61
2024/01/20 04:35:31;;;;;;;11.73;4.87;;;-3.00;99.90;;;;;;4211508;28;20280;-61
2024/01/20 04:37:33;;;;;;;16.70;5.63;;;-3.00;99.90;;;;;;4210166;28;20292;-62
2024/01/20 04:39:34;;;;;;;9.10;4.70;;;-3.10;99.90;;;;;;4211534;28;20281;-62
2024/01/20 04:41:35;;;;;;;9.80;5.23;;;-3.10;99.90;;;;;;4209851;28;20276;-62
2024/01/20 04:43:37;;;;;;;9.23;3.90;;;-3.10;99.90;;;;;;4210465;28;20268;-62
2024/01/20 04:45:38;;;;;;;8.67;4.27;;;-3.10;99.90;;;;;;4209242;28;20257;-61
2024/01/20 04:47:39;;;;;;;8.17;4.13;;;-3.20;99.90;;;;;;4209999;28;20330;-63
2024/01/20 04:49:40;;;;;;;9.67;4.80;;;-3.20;99.90;;;;;;4209409;28;20716;-61
2024/01/20 04:51:41;;;;;;;8.53;4.00;;;-3.20;99.90;;;;;;4209906;28;20733;-61
2024/01/20 04:53:43;;;;;;;11.83;4.00;;;-3.20;99.90;;;;;;4209759;28;20389;-61
2024/01/20 04:55:44;;;;;;;7.63;4.00;;;-3.20;99.90;;;;;;4209320;28;20695;-62
2024/01/20 04:57:45;;;;;;;5.80;2.87;;;-3.30;99.90;;;;;;4209897;28;20687;-62
2024/01/20 04:59:47;;;;;;;9.43;3.73;;;-3.30;99.90;;;;;;4209266;28;20596;-62
2024/01/20 05:01:49;;;;;;;9.33;3.33;;;-3.30;99.90;;;;;;4210431;28;20280;-61
2024/01/20 05:03:50;;;;;;;9.83;3.43;;;-3.30;99.90;;;;;;4209009;28;20265;-60
2024/01/20 05:05:51;;;;;;;7.00;3.57;;;-3.40;99.90;;;;;;4210476;28;20322;-61
2024/01/20 05:07:52;;;;;;;7.23;3.13;;;-3.40;99.90;;;;;;4209011;28;20261;-61
2024/01/20 05:09:53;;;;;;;8.07;3.40;;;-3.40;99.90;;;;;;4210648;28;20277;-61
2024/01/20 05:11:55;;;;;;;9.87;3.77;;;-3.40;99.90;;;;;;4208784;28;20659;-62
2024/01/20 05:13:56;;;;;;;20.27;4.50;;;-3.40;99.90;;;;;;4208882;28;20766;-61
2024/01/20 05:15:57;;;;;;;11.13;4.80;;;-3.40;99.90;;;;;;4210413;28;20287;-61
2024/01/20 05:17:58;;;;;;;12.73;4.57;;;-3.50;99.90;;;;;;4213281;28;20294;-62
2024/01/20 05:19:59;;;;;;;10.40;5.07;;;-3.50;99.90;;;;;;4212537;28;20640;-61
2024/01/20 05:22:01;;;;;;;11.37;4.67;;;-3.50;99.90;;;;;;4212979;28;20261;-61
2024/01/20 05:24:02;;;;;;;9.23;3.60;;;-3.50;99.90;;;;;;4212625;28;20268;-61
2024/01/20 05:26:03;;;;;;;10.97;4.07;;;-3.50;99.90;;;;;;4212474;28;20802;-61
2024/01/20 05:28:05;;;;;;;6.87;3.00;;;-3.50;99.90;;;;;;4212986;28;20273;-61
2024/01/20 05:30:07;;;;;;;8.17;3.53;;;-3.50;99.90;;;;;;4211697;28;20322;-60
2024/01/20 05:32:08;;;;;;;5.50;2.90;;;-3.50;99.90;;;;;;4212761;28;20273;-62
2024/01/20 05:34:10;;;;;;;7.33;3.33;;;-3.50;99.90;;;;;;4211857;28;20318;-61
2024/01/20 05:36:12;;;;;;;7.60;2.70;;;-3.50;99.90;;;;;;4212961;28;20813;-60
2024/01/20 05:38:14;;;;;;;8.80;3.47;;;-3.50;99.90;;;;;;4211721;28;20318;-62
2024/01/20 05:40:15;;;;;;;5.97;3.17;;;-3.50;99.90;;;;;;4213056;28;20260;-60
2024/01/20 05:42:16;;;;;;;9.50;3.33;;;-3.50;99.90;;;;;;4211424;28;20261;-62
2024/01/20 05:44:18;;;;;;;8.60;3.17;;;-3.50;99.90;;;;;;4212694;28;20279;-60
2024/01/20 05:46:20;;;;;;;9.07;3.80;;;-3.50;99.90;;;;;;4211405;28;20265;-60
2024/01/20 05:48:21;;;;;;;8.00;3.47;;;-3.50;99.90;;;;;;4212462;28;20261;-62
2024/01/20 05:50:23;;;;;;;7.50;2.97;;;-3.50;99.90;;;;;;4211740;28;20353;-60
2024/01/20 05:52:24;;;;;;;11.20;3.20;;;-3.50;99.90;;;;;;4212272;28;21065;-62
2024/01/20 05:54:25;;;;;;;8.37;3.43;;;-3.50;99.90;;;;;;4211888;28;20322;-61
2024/01/20 05:56:26;;;;;;;7.73;3.10;;;-3.50;99.90;;;;;;4211832;28;20288;-60
2024/01/20 05:58:27;;;;;;;7.90;3.60;;;-3.50;99.90;;;;;;4211575;28;20257;-62
2024/01/20 06:00:28;;;;;;;6.23;3.73;;;-3.50;99.90;;;;;;4211157;28;20306;-61
2024/01/20 06:02:30;;;;;;;10.20;3.03;;;-3.50;99.90;;;;;;4211234;28;20253;-60
2024/01/20 06:04:32;;;;;;;7.67;2.90;;;-3.50;99.90;;;;;;4211478;28;20664;-62
2024/01/20 06:06:33;;;;;;;16.93;7.53;;;-3.50;99.90;;;;;;4212547;28;20301;-61
2024/01/20 06:08:34;;;;;;;13.90;7.20;;;-3.50;99.90;;;;;;4211319;28;20272;-61
2024/01/20 06:10:36;;;;;;;15.57;6.80;;;-3.50;99.90;;;;;;4212578;28;20745;-61
2024/01/20 06:12:37;;;;;;;12.27;5.75;;;-3.50;99.90;;;;;;4210712;28;20651;-62
2024/01/20 06:14:39;;;;;;;21.13;7.87;;;-3.50;99.90;;;;;;4212541;28;20073;-62
2024/01/20 06:16:41;;;;;;;13.83;6.30;;;-3.50;99.90;;;;;;4209403;28;21036;-62
2024/01/20 06:18:42;;;;;;;11.90;5.83;;;-3.60;99.90;;;;;;4212039;28;20284;-62
2024/01/20 06:20:44;;;;;;;14.67;6.27;;;-3.60;99.90;;;;;;4211250;28;20679;-62
2024/01/20 06:22:45;;;;;;;10.63;5.60;;;-3.60;99.90;;;;;;4211769;28;20269;-62
2024/01/20 06:24:46;;;;;;;11.87;5.67;;;-3.60;99.90;;;;;;4211306;28;20257;-62
2024/01/20 06:26:47;;;;;;;13.53;5.67;;;-3.60;99.90;;;;;;4192571;28;20281;-62
2024/01/20 06:28:49;;;;;;;15.10;4.90;;;-3.60;99.90;;;;;;4211796;28;20598;-62
2024/01/20 06:30:50;;;;;;;7.50;4.03;;;-3.60;99.90;;;;;;4210734;28;20325;-61
2024/01/20 06:32:52;;;;;;;11.33;4.20;;;-3.60;99.90;;;;;;4211635;28;20404;-61
2024/01/20 06:34:53;;;;;;;9.83;4.70;;;-3.60;99.90;;;;;;4210433;28;20306;-61
2024/01/20 06:36:54;;;;;;;11.93;4.57;;;-3.50;99.90;;;;;;4211807;28;20296;-61
2024/01/20 06:38:55;;;;;;;9.07;3.53;;;-3.40;99.90;;;;;;4210480;28;20281;-62
2024/01/20 06:40:56;;;;;;;10.80;4.30;;;-3.40;99.90;;;;;;4212437;28;20326;-61
2024/01/20 06:42:57;;;;;;;8.70;5.07;;;-3.40;99.90;;;;;;4210516;28;20326;-61
2024/01/20 06:44:59;;;;;;;9.50;4.80;;;-3.40;99.90;;;;;;4212049;28;20871;-62
2024/01/20 06:47:00;;;;;;;7.90;3.97;;;-3.40;99.90;;;;;;4209731;28;20284;-61
2024/01/20 06:49:01;;;;;;;9.77;4.90;;;-3.30;99.90;;;;;;4211553;28;20303;-61
2024/01/20 06:51:03;;;;;;;14.00;5.73;;;-3.30;99.90;;;;;;4210660;28;20752;-61
2024/01/20 06:53:04;;;;;;;12.77;6.03;;;-3.30;99.90;;;;;;4211233;28;20627;-62
2024/01/20 06:55:06;;;;;;;12.10;7.13;;;-3.40;99.90;;;;;;4210523;28;20272;-62
2024/01/20 06:57:07;;;;;;;10.40;4.63;;;-3.40;99.90;;;;;;4211098;28;21105;-62
2024/01/20 06:59:08;;;;;;;14.60;5.67;;;-3.40;99.90;;;;;;4211026;28;20310;-60
2024/01/20 07:01:10;;;;;;;13.73;6.87;;;-3.40;99.90;;;;;;4210650;28;20306;-62
2024/01/20 07:03:12;;;;;;;11.23;5.90;;;-3.40;99.90;;;;;;4211361;28;20287;-61
2024/01/20 07:05:13;;;;;;;15.37;5.60;;;-3.40;99.90;;;;;;4210382;28;20722;-61
2024/01/20 07:07:14;;;;;;;16.30;5.73;;;-3.40;99.90;;;;;;4211326;28;20684;-62
2024/01/20 07:09:15;;;;;;;13.77;4.40;;;-3.40;99.90;;;;;;4210119;28;20269;-62
2024/01/20 07:11:16;;;;;;;11.27;4.70;;;-3.50;99.90;;;;;;4211970;28;20268;-62
2024/01/20 07:13:18;;;;;;;9.53;4.83;;;-3.40;99.90;;;;;;4210299;28;20692;-62
2024/01/20 07:15:19;;;;;;;10.40;5.20;;;-3.40;99.90;;;;;;4211485;28;20265;-61
2024/01/20 07:17:20;;;;;;;11.97;5.37;;;-3.20;99.90;;;;;;4210234;28;20284;-61
2024/01/20 07:19:21;;;;;;;12.40;5.83;;;-2.80;99.90;;;;;;4211157;28;20322;-62
2024/01/20 07:21:22;;;;;;;11.80;5.40;;;-2.30;99.90;;;;;;4210084;28;20617;-62
2024/01/20 07:23:23;;;;;;;12.47;5.93;;;-2.00;99.90;;;;;;4211144;28;20318;-61
2024/01/20 07:25:25;;;;;;;15.97;7.10;;;-1.80;99.90;;;;;;4210390;28;20302;-62
2024/01/20 07:27:26;;;;;;;12.27;6.37;;;-1.60;99.90;;;;;;4210581;28;20268;-62
2024/01/20 07:29:27;;;;;;;12.53;6.90;;;-1.40;99.90;;;;;;4210516;28;20322;-62
2024/01/20 07:31:28;;;;;;;15.13;6.93;;;-1.10;99.90;;;;;;4210069;28;20260;-62
2024/01/20 07:33:29;;;;;;;14.90;7.93;;;-0.90;99.90;;;;;;4211006;28;20287;-61
2024/01/20 07:35:31;;;;;;;10.30;5.37;;;-0.80;99.90;;;;;;4209653;28;21106;-61
2024/01/20 07:37:35;;;;;;;13.40;5.63;;;-0.70;99.90;;;;;;4210697;28;20764;-61
2024/01/20 07:39:37;;;;;;;13.60;5.93;;;-0.80;99.90;;;;;;4207904;28;20374;-62
2024/01/20 07:41:38;;;;;;;12.50;6.23;;;-0.70;99.90;;;;;;4211176;28;20325;-61
2024/01/20 07:43:39;;;;;;;11.27;5.27;;;-0.60;99.90;;;;;;4209512;28;20281;-61
2024/01/20 07:45:40;;;;;;;18.40;6.33;;;-0.50;99.90;;;;;;4210307;28;20333;-61
2024/01/20 07:47:41;;;;;;;10.33;5.30;;;-0.50;99.90;;;;;;4209406;28;20276;-60
2024/01/20 07:49:42;;;;;;;10.57;5.53;;;-0.50;99.90;;;;;;4210786;28;20261;-60
2024/01/20 07:51:44;;;;;;;11.37;6.50;;;-0.40;99.90;;;;;;4209530;28;20694;-61
2024/01/20 07:53:47;;;;;;;15.80;6.30;;;-0.20;99.90;;;;;;4210692;28;20281;-61
2024/01/20 07:55:48;;;;;;;12.43;6.30;;;-0.20;99.90;;;;;;4209805;28;20689;-61
2024/01/20 07:57:49;;;;;;;16.30;7.00;;;0.00;99.90;;;;;;4210199;28;20786;-63
2024/01/20 07:59:50;;;;;;;11.20;5.90;;;-0.10;99.90;;;;;;4209912;28;20594;-62
2024/01/20 08:01:52;;;;;;;10.90;6.00;;;-0.10;99.90;;;;;;4209844;28;20261;-61
2024/01/20 08:03:53;;;;;;;14.40;5.90;;;0.00;99.90;;;;;;4210526;28;20276;-63
2024/01/20 08:05:54;;;;;;;11.73;5.80;;;0.10;99.90;;;;;;4209560;28;20993;-61
2024/01/20 08:07:55;;;;;;;14.57;6.50;;;0.20;99.90;;;;;;4210448;28;20523;-61
2024/01/20 08:09:57;;;;;;;12.90;6.40;;;0.30;99.90;;;;;;4209348;28;20756;-62
2024/01/20 08:11:58;;;;;;;13.17;6.13;;;0.30;99.90;;;;;;4210250;28;20276;-61
2024/01/20 08:13:59;;;;;;;11.60;6.60;;;0.20;99.90;;;;;;4209050;28;20284;-61
2024/01/20 08:16:00;;;;;;;18.27;8.30;;;0.10;99.90;;;;;;4210479;28;20261;-62
2024/01/20 08:18:02;;;;;;;19.27;9.13;;;0.00;99.90;;;;;;4209323;28;20284;-61
2024/01/20 08:20:03;;;;;;;18.97;9.97;;;0.10;99.90;;;;;;4210520;28;20261;-62
2024/01/20 08:22:06;;;;;;;24.87;11.67;;;0.20;99.90;;;;;;4209194;28;20261;-61
2024/01/20 08:24:07;;;;;;;30.80;12.53;;;0.20;99.90;;;;;;4210234;28;20635;-62
2024/01/20 08:26:09;;;;;;;16.67;7.43;;;0.20;99.90;;;;;;4208677;28;20269;-62
2024/01/20 08:28:10;;;;;;;12.07;6.57;;;0.20;99.90;;;;;;4210161;28;20720;-62
2024/01/20 08:30:11;;;;;;;15.63;9.23;;;0.20;99.90;;;;;;4208984;28;20324;-62
2024/01/20 08:32:13;;;;;;;18.40;9.70;;;0.20;99.90;;;;;;4209576;28;20260;-63
2024/01/20 08:34:14;;;;;;;13.63;6.90;;;0.50;99.90;;;;;;4209703;28;20269;-62
2024/01/20 08:36:15;;;;;;;14.97;6.47;;;0.60;99.90;;;;;;4209238;28;20277;-62
2024/01/20 08:38:16;;;;;;;16.27;8.13;;;0.70;99.90;;;;;;4209935;28;20671;-64
2024/01/20 08:40:17;;;;;;;15.63;6.43;;;0.80;99.90;;;;;;4208815;28;20273;-62
2024/01/20 08:42:19;;;;;;;12.37;6.20;;;0.80;99.90;;;;;;4210084;28;20283;-62
2024/01/20 08:44:20;;;;;;;12.83;6.13;;;0.70;99.90;;;;;;4209062;28;20256;-63
2024/01/20 08:46:21;;;;;;;21.50;8.67;;;0.70;99.90;;;;;;4210102;28;20303;-63
2024/01/20 08:48:22;;;;;;;48.37;18.67;;;0.60;99.90;;;;;;4208904;28;20260;-62
2024/01/20 08:50:24;;;;;;;50.63;19.93;;;0.70;99.90;;;;;;4212591;28;20801;-59
2024/01/20 08:52:25;;;;;;;31.87;13.50;;;0.80;99.90;;;;;;4211765;28;20786;-61
2024/01/20 08:54:26;;;;;;;26.23;12.53;;;0.90;99.90;;;;;;4212362;28;20798;-62
2024/01/20 08:56:27;;;;;;;30.97;14.47;;;0.90;99.90;;;;;;4211930;28;20268;-62
2024/01/20 08:58:28;;;;;;;28.90;12.50;;;1.00;99.90;;;;;;4213094;28;20675;-61
2024/01/20 09:00:29;;;;;;;41.27;19.30;;;1.00;99.90;;;;;;4212544;28;20257;-61
2024/01/20 09:02:31;;;;;;;18.57;10.23;;;1.00;99.90;;;;;;4212190;28;20261;-63
2024/01/20 09:04:32;;;;;;;18.83;8.73;;;0.90;99.90;;;;;;4212479;28;20686;-61
2024/01/20 09:06:33;;;;;;;15.57;6.63;;;0.90;99.90;;;;;;4212110;28;20750;-62
2024/01/20 09:08:34;;;;;;;13.13;6.37;;;0.90;99.90;;;;;;4213191;28;20269;-62
2024/01/20 09:10:39;;;;;;;15.80;8.97;;;0.70;99.90;;;;;;4212376;28;20306;-62
2024/01/20 09:12:40;;;;;;;20.63;7.73;;;0.90;99.90;;;;;;4212716;28;20667;-63
2024/01/20 09:14:41;;;;;;;14.83;5.97;;;0.80;99.90;;;;;;4211618;28;20306;-60
2024/01/20 09:16:43;;;;;;;13.30;5.33;;;0.80;99.90;;;;;;4213198;28;20306;-62
2024/01/20 09:18:44;;;;;;;14.83;5.57;;;0.80;99.90;;;;;;4211371;28;20346;-63
2024/01/20 09:20:45;;;;;;;14.60;6.33;;;0.80;99.90;;;;;;4213137;28;20329;-62
2024/01/20 09:22:47;;;;;;;10.40;5.17;;;0.80;99.90;;;;;;4211911;28;20260;-60
2024/01/20 09:24:48;;;;;;;11.33;5.57;;;0.70;99.90;;;;;;4212957;28;20260;-62
2024/01/20 09:26:49;;;;;;;10.90;5.13;;;0.70;99.90;;;;;;4211741;28;20326;-62
2024/01/20 09:28:50;;;;;;;12.30;5.53;;;0.90;99.90;;;;;;4212177;28;20264;-61
2024/01/20 09:30:52;;;;;;;10.27;5.47;;;1.00;99.90;;;;;;4212009;28;20748;-62
2024/01/20 09:32:53;;;;;;;10.07;4.43;;;0.80;99.90;;;;;;4210540;28;20382;-63
2024/01/20 09:34:54;;;;;;;8.40;4.40;;;0.90;99.90;;;;;;4212457;28;20677;-62
2024/01/20 09:36:55;;;;;;;8.70;4.17;;;0.80;99.90;;;;;;4211759;28;20310;-62
2024/01/20 09:38:56;;;;;;;7.03;3.80;;;0.90;99.90;;;;;;4212713;28;20776;-63
2024/01/20 09:40:58;;;;;;;9.77;4.43;;;1.00;99.90;;;;;;4212074;28;20261;-62
2024/01/20 09:42:59;;;;;;;10.07;5.40;;;1.10;99.90;;;;;;4212285;28;20342;-61
2024/01/20 09:45:02;;;;;;;11.70;4.80;;;1.30;99.90;;;;;;4211489;28;20265;-62
2024/01/20 09:47:07;;;;;;;7.93;4.17;;;1.20;99.90;;;;;;4212131;28;20323;-63
2024/01/20 09:49:08;;;;;;;10.10;4.43;;;1.20;99.90;;;;;;4210888;28;20329;-62
2024/01/20 09:51:09;;;;;;;11.53;6.00;;;1.10;99.90;;;;;;4212602;28;20265;-63
2024/01/20 09:53:15;;;;;;;15.07;6.60;;;1.10;99.90;;;;;;4211208;28;20312;-63
2024/01/20 09:55:23;;;;;;;9.63;4.70;;;1.20;99.90;;;;;;4211895;28;20762;-62
2024/01/20 09:57:24;;;;;;;14.63;5.23;;;1.10;99.90;;;;;;4209068;28;20318;-63
2024/01/20 09:59:27;;;;;;;12.77;4.70;;;1.20;99.90;;;;;;4212241;28;20256;-62
2024/01/20 10:01:28;;;;;;;18.17;6.17;;;1.30;99.90;;;;;;4208624;28;20315;-63
2024/01/20 10:03:34;;;;;;;8.57;4.87;;;1.30;99.90;;;;;;4212035;28;20330;-63
2024/01/20 10:05:36;;;;;;;13.37;5.53;;;1.30;99.90;;;;;;4210993;28;20280;-62
2024/01/20 10:07:37;;;;;;;10.10;5.60;;;1.20;99.90;;;;;;4211371;28;20265;-62
2024/01/20 10:09:39;;;;;;;13.47;5.80;;;1.20;99.90;;;;;;4210161;28;20306;-62
2024/01/20 10:11:40;;;;;;;10.03;5.10;;;1.20;99.90;;;;;;4211207;28;20265;-62
2024/01/20 10:13:41;;;;;;;11.10;5.33;;;1.10;99.90;;;;;;4211537;28;20276;-63
2024/01/20 10:15:42;;;;;;;11.40;4.70;;;1.00;99.90;;;;;;4210953;28;20265;-61
2024/01/20 10:17:43;;;;;;;5.90;3.97;;;1.10;99.90;;;;;;4211554;28;21272;-62
2024/01/20 10:19:45;;;;;;;12.00;5.23;;;1.00;99.90;;;;;;4210610;28;20272;-63
2024/01/20 10:21:49;;;;;;;11.40;5.07;;;1.00;99.90;;;;;;4211627;28;20330;-63
2024/01/20 10:23:51;;;;;;;12.90;5.37;;;1.00;99.90;;;;;;4210592;28;20261;-62
2024/01/20 10:26:05;;;;;;;12.13;5.70;;;1.00;99.90;;;;;;4211919;28;20264;-63
2024/01/20 10:28:07;;;;;;;11.17;4.70;;;1.00;99.90;;;;;;4210680;28;20273;-62